This is the latest recevied weather packets stored in our database for station/object KG5VSR. If no packets are shown the sender has not sent any weather packets the latest 10 day(s).
| Time | Temp. | Humidity | Pressure | Rain* | Wind** | Luminosity | Snow |
|---|---|---|---|---|---|---|---|
| 1777491289 | 15.56° C | 99% | 1016.6 hPa | 0 mm | - | 19 W/m² | - |
| 1777489488 | 16.67° C | 98% | 1013.8 hPa | 4.83 mm | - | 180 W/m² | - |
| 1777487683 | 16.11° C | 91% | 1014.9 hPa | 6.1 mm | - | 81 W/m² | - |
| 1777485883 | 16.67° C | 88% | 1015.4 hPa | 0 mm | - | 76 W/m² | - |
| 1777484078 | 16.11° C | 89% | 1016.8 hPa | 0 mm | - | 37 W/m² | - |
| 1777482274 | 16.11° C | 88% | 1015.6 hPa | 0 mm | - | 207 W/m² | - |
| 1777480473 | 16.11° C | 88% | 1016.5 hPa | 0 mm | - | 93 W/m² | - |
| 1777478671 | 15.56° C | 90% | 1015.8 hPa | 0 mm | - | 109 W/m² | - |
| 1777476867 | 16.11° C | 86% | 1016.4 hPa | 0 mm | - | 67 W/m² | - |
| 1777475068 | 16.11° C | 86% | 1016 hPa | 0 mm | - | 49 W/m² | - |
| 1777473265 | 15.56° C | 86% | 1015.9 hPa | 0 mm | - | 48 W/m² | - |
| 1777471461 | 15.56° C | 85% | 1015.7 hPa | 0 mm | - | 23 W/m² | - |
| 1777469657 | 16.11° C | 84% | 1015.7 hPa | 0 mm | - | 22 W/m² | - |
| 1777467856 | 16.11° C | 83% | 1015.2 hPa | 0 mm | - | 19 W/m² | - |
| 1777466057 | 16.67° C | 80% | 1015.3 hPa | 0 mm | - | 4 W/m² | - |
| 1777464253 | 16.67° C | 79% | 1014.6 hPa | 0 mm | - | 3 W/m² | - |
| 1777462450 | 17.22° C | 79% | 1013.9 hPa | 0 mm | - | 0 W/m² | - |
| 1777460644 | 17.78° C | 79% | 1014 hPa | 0 mm | - | 0 W/m² | - |
| 1777458843 | 17.78° C | 82% | 1013.8 hPa | 0 mm | - | 0 W/m² | - |
| 1777457042 | 18.33° C | 84% | 1013.4 hPa | 0 mm | - | 0 W/m² | - |
| 1777455241 | 18.89° C | 86% | 1013.6 hPa | 0 mm | - | 0 W/m² | - |
| 1777453440 | 19.44° C | 87% | 1013.6 hPa | 0 mm | - | 0 W/m² | - |
| 1777451640 | 19.44° C | 88% | 1013.4 hPa | 0 mm | - | 0 W/m² | - |
| 1777449839 | 19.44° C | 88% | 1012.8 hPa | 0 mm | - | 0 W/m² | - |
| 1777448040 | 19.44° C | 89% | 1012.9 hPa | 0 mm | - | 0 W/m² | - |
* Rain latest hour (hover to see other rain measurements)
** Current wind speed in m/s (hover to see current wind gust speed)